createdAt,value
2023-01-11T00:00:10.552Z,87.90
2023-01-11T00:01:10.612Z,88.00
2023-01-11T00:02:10.749Z,87.96
2023-01-11T00:03:10.787Z,87.75
2023-01-11T00:04:10.864Z,87.55
2023-01-11T00:05:10.952Z,87.65
2023-01-11T00:06:11.032Z,87.65
2023-01-11T00:07:11.124Z,87.65
2023-01-11T00:08:11.154Z,87.75
2023-01-11T00:09:11.239Z,87.85
2023-01-11T00:10:11.319Z,87.96
2023-01-11T00:11:11.422Z,88.06
2023-01-11T00:12:11.496Z,88.17
2023-01-11T00:13:11.573Z,88.20
2023-01-11T00:14:11.670Z,88.31
2023-01-11T00:15:11.743Z,88.37
2023-01-11T00:16:11.850Z,88.37
2023-01-11T00:17:11.918Z,88.37
2023-01-11T00:18:11.992Z,88.37
2023-01-11T00:19:12.053Z,88.47
2023-01-11T00:20:12.156Z,88.27
2023-01-11T00:21:12.226Z,88.17
2023-01-11T00:22:12.314Z,88.17
2023-01-11T00:23:12.379Z,88.37
2023-01-11T00:24:12.481Z,88.47
2023-01-11T00:25:12.559Z,88.37
2023-01-11T00:26:12.632Z,88.02
2023-01-11T00:27:12.724Z,87.92
2023-01-11T00:28:12.797Z,87.96
2023-01-11T00:29:12.868Z,88.37
2023-01-11T00:30:12.948Z,88.47
2023-01-11T00:31:13.042Z,88.47
2023-01-11T00:32:13.106Z,88.47
2023-01-11T00:33:13.186Z,88.57
2023-01-11T00:34:13.250Z,88.68
2023-01-11T00:35:13.331Z,88.89
2023-01-11T00:36:13.405Z,88.98
2023-01-11T00:37:13.503Z,89.09
2023-01-11T00:38:13.576Z,89.19
2023-01-11T00:39:13.653Z,89.50
2023-01-11T00:40:13.745Z,89.85
2023-01-11T00:41:13.808Z,89.85
2023-01-11T00:42:13.904Z,89.95
2023-01-11T00:43:13.981Z,89.95
2023-01-11T00:44:14.063Z,90.06
2023-01-11T00:45:14.115Z,89.81
2023-01-11T00:46:14.287Z,89.91
2023-01-11T00:47:14.315Z,90.01
2023-01-11T00:48:14.384Z,90.26
2023-01-11T00:49:14.455Z,90.36
2023-01-11T00:50:14.564Z,90.57
2023-01-11T00:51:14.631Z,90.42
2023-01-11T00:52:14.727Z,90.57
2023-01-11T00:53:14.803Z,90.53
2023-01-11T00:54:14.877Z,90.42
2023-01-11T00:55:14.943Z,90.42
2023-01-11T00:56:15.049Z,90.53
2023-01-11T00:57:15.133Z,90.53
2023-01-11T00:58:15.185Z,90.53
2023-01-11T00:59:15.257Z,90.63
2023-01-11T01:00:15.361Z,90.63
2023-01-11T01:01:15.424Z,90.63
2023-01-11T01:02:15.548Z,90.63
2023-01-11T01:03:15.566Z,90.63
2023-01-11T01:04:15.676Z,90.63
2023-01-11T01:05:15.746Z,90.83
2023-01-11T01:06:15.829Z,90.73
2023-01-11T01:07:15.918Z,90.73
2023-01-11T01:08:15.986Z,90.83
2023-01-11T01:09:16.053Z,90.83
2023-01-11T01:10:16.158Z,90.83
2023-01-11T01:11:16.239Z,91.04
2023-01-11T01:12:16.338Z,90.83
2023-01-11T01:13:16.399Z,90.94
2023-01-11T01:14:16.497Z,91.04
2023-01-11T01:15:16.580Z,91.14
2023-01-11T01:16:16.777Z,91.04
2023-01-11T01:17:16.755Z,90.94
2023-01-11T01:18:16.820Z,90.94
2023-01-11T01:19:16.881Z,90.94
2023-01-11T01:20:16.984Z,91.14
2023-01-11T01:21:17.056Z,91.35
2023-01-11T01:22:17.173Z,91.45
2023-01-11T01:23:17.208Z,91.55
2023-01-11T01:24:17.324Z,91.70
2023-01-11T01:25:17.386Z,91.76
2023-01-11T01:26:17.461Z,91.91
2023-01-11T01:27:17.571Z,92.01
2023-01-11T01:28:17.626Z,92.11
2023-01-11T01:29:17.701Z,92.07
2023-01-11T01:30:17.785Z,91.97
2023-01-11T01:31:18.001Z,91.97
2023-01-11T01:32:17.970Z,91.97
2023-01-11T01:33:18.010Z,91.97
2023-01-11T01:34:18.096Z,91.97
2023-01-11T01:35:18.160Z,91.86
2023-01-11T01:36:18.245Z,91.76
2023-01-11T01:37:18.344Z,91.76
2023-01-11T01:38:18.415Z,91.76
2023-01-11T01:39:18.557Z,91.61
2023-01-11T01:40:18.557Z,91.51
2023-01-11T01:41:18.636Z,91.41
2023-01-11T01:42:18.736Z,91.51
2023-01-11T01:43:18.813Z,91.51
2023-01-11T01:44:18.880Z,91.61
2023-01-11T01:45:18.950Z,91.51
2023-01-11T01:46:19.055Z,91.51
2023-01-11T01:47:19.126Z,91.51
2023-01-11T01:48:19.204Z,91.41
2023-01-11T01:49:19.264Z,91.31
2023-01-11T01:50:19.339Z,91.31
2023-01-11T01:51:19.418Z,91.31
2023-01-11T01:52:19.516Z,91.31
2023-01-11T01:53:19.580Z,91.27
2023-01-11T01:54:19.679Z,91.41
2023-01-11T01:55:19.743Z,91.37
2023-01-11T01:56:19.842Z,91.27
2023-01-11T01:57:19.921Z,91.06
2023-01-11T01:58:19.984Z,91.06
2023-01-11T01:59:20.073Z,91.06
2023-01-11T02:00:20.129Z,91.06
2023-01-11T02:01:20.222Z,90.95
2023-01-11T02:02:20.324Z,90.95
2023-01-11T02:03:20.344Z,90.95
2023-01-11T02:04:20.440Z,90.95
2023-01-11T02:05:20.520Z,90.85
2023-01-11T02:06:20.637Z,90.95
2023-01-11T02:07:20.689Z,90.95
2023-01-11T02:08:20.767Z,90.95
2023-01-11T02:09:20.845Z,90.95
2023-01-11T02:10:20.931Z,90.95
2023-01-11T02:11:20.988Z,90.95
2023-01-11T02:12:21.100Z,91.06
2023-01-11T02:13:21.172Z,91.27
2023-01-11T02:14:21.253Z,91.27
2023-01-11T02:15:21.337Z,91.27
2023-01-11T02:16:21.482Z,91.27
2023-01-11T02:17:21.512Z,91.02
2023-01-11T02:18:21.575Z,90.91
2023-01-11T02:19:21.651Z,90.81
2023-01-11T02:20:21.751Z,90.91
2023-01-11T02:21:21.826Z,90.81
2023-01-11T02:22:21.921Z,90.71
2023-01-11T02:23:21.997Z,90.71
2023-01-11T02:24:22.086Z,90.50
2023-01-11T02:25:22.157Z,90.26
2023-01-11T02:26:22.257Z,90.26
2023-01-11T02:27:22.365Z,90.16
2023-01-11T02:28:22.409Z,90.05
2023-01-11T02:29:22.492Z,90.05
2023-01-11T02:30:22.587Z,90.16
2023-01-11T02:31:22.723Z,90.26
2023-01-11T02:32:22.787Z,90.16
2023-01-11T02:33:22.844Z,90.26
2023-01-11T02:34:22.937Z,90.26
2023-01-11T02:35:23.009Z,90.16
2023-01-11T02:36:23.086Z,89.95
2023-01-11T02:37:23.173Z,89.95
2023-01-11T02:38:23.237Z,90.05
2023-01-11T02:39:23.311Z,89.81
2023-01-11T02:40:23.403Z,89.70
2023-01-11T02:41:23.477Z,89.70
2023-01-11T02:42:23.588Z,89.60
2023-01-11T02:43:23.661Z,89.50
2023-01-11T02:44:23.751Z,89.39
2023-01-11T02:45:23.841Z,89.19
2023-01-11T02:46:23.955Z,89.29
2023-01-11T02:47:24.005Z,89.39
2023-01-11T02:48:24.075Z,89.50
2023-01-11T02:49:24.155Z,89.39
2023-01-11T02:50:24.231Z,89.60
2023-01-11T02:51:24.304Z,89.50
2023-01-11T02:52:24.408Z,89.60
2023-01-11T02:53:24.491Z,89.70
2023-01-11T02:54:24.598Z,89.70
2023-01-11T02:55:24.651Z,89.60
2023-01-11T02:56:24.743Z,89.60
2023-01-11T02:57:24.846Z,89.70
2023-01-11T02:58:24.909Z,89.81
2023-01-11T02:59:24.985Z,89.81
2023-01-11T03:00:25.075Z,89.90
2023-01-11T03:01:25.177Z,89.81
2023-01-11T03:02:25.425Z,90.01
2023-01-11T03:03:25.310Z,90.01
2023-01-11T03:04:25.393Z,90.11
2023-01-11T03:05:25.460Z,90.11
2023-01-11T03:06:25.616Z,90.22
2023-01-11T03:07:25.642Z,90.32
2023-01-11T03:08:25.705Z,90.32
2023-01-11T03:09:25.777Z,90.42
2023-01-11T03:10:25.875Z,90.42
2023-01-11T03:11:25.948Z,90.42
2023-01-11T03:12:26.051Z,90.42
2023-01-11T03:13:26.118Z,90.42
2023-01-11T03:14:26.185Z,90.52
2023-01-11T03:15:26.255Z,90.52
2023-01-11T03:16:26.456Z,90.52
2023-01-11T03:17:26.431Z,90.42
2023-01-11T03:18:26.509Z,90.42
2023-01-11T03:19:26.575Z,90.28
2023-01-11T03:20:26.661Z,90.07
2023-01-11T03:21:26.736Z,89.97
2023-01-11T03:22:26.842Z,89.97
2023-01-11T03:23:26.902Z,89.97
2023-01-11T03:24:26.986Z,89.87
2023-01-11T03:25:27.056Z,90.07
2023-01-11T03:26:29.282Z,90.07
2023-01-11T03:27:27.243Z,89.97
2023-01-11T03:28:27.295Z,89.97
2023-01-11T03:29:27.368Z,89.87
2023-01-11T03:30:27.466Z,89.97
2023-01-11T03:31:27.573Z,89.97
2023-01-11T03:32:27.646Z,89.97
2023-01-11T03:33:29.323Z,89.97
2023-01-11T03:34:27.783Z,89.87
2023-01-11T03:35:27.858Z,89.87
2023-01-11T03:36:27.928Z,89.97
2023-01-11T03:37:28.036Z,89.83
2023-01-11T03:38:28.087Z,89.92
2023-01-11T03:39:28.187Z,89.92
2023-01-11T03:40:28.267Z,89.83
2023-01-11T03:41:28.321Z,89.92
2023-01-11T03:42:28.408Z,89.83
2023-01-11T03:43:28.488Z,89.72
2023-01-11T03:44:28.580Z,89.72
2023-01-11T03:45:28.677Z,89.62
2023-01-11T03:46:28.832Z,89.62
2023-01-11T03:47:28.834Z,89.68
2023-01-11T03:48:28.921Z,89.78
2023-01-11T03:49:28.999Z,89.37
2023-01-11T03:50:29.070Z,89.27
2023-01-11T03:51:29.154Z,89.06
2023-01-11T03:52:29.262Z,88.92
2023-01-11T03:53:29.305Z,88.92
2023-01-11T03:54:29.375Z,88.82
2023-01-11T03:55:29.455Z,88.51
2023-01-11T03:56:29.562Z,88.51
2023-01-11T03:57:29.658Z,88.51
2023-01-11T03:58:29.749Z,88.62
2023-01-11T03:59:29.831Z,88.10
2023-01-11T04:00:29.941Z,87.90
2023-01-11T04:01:29.984Z,88.31
2023-01-11T04:02:30.070Z,88.06
2023-01-11T04:03:30.130Z,88.06
2023-01-11T04:04:30.269Z,88.06
2023-01-11T04:05:30.254Z,88.06
2023-01-11T04:06:30.379Z,88.17
2023-01-11T04:07:30.464Z,88.17
2023-01-11T04:08:30.532Z,88.06
2023-01-11T04:09:30.608Z,88.17
2023-01-11T04:10:30.683Z,88.17
2023-01-11T04:11:30.756Z,88.26
2023-01-11T04:12:30.860Z,88.17
2023-01-11T04:13:30.924Z,88.06
2023-01-11T04:14:30.982Z,88.17
2023-01-11T04:15:31.058Z,88.37
2023-01-11T04:16:31.193Z,88.26
2023-01-11T04:17:31.246Z,87.96
2023-01-11T04:18:31.332Z,88.17
2023-01-11T04:19:31.416Z,88.06
2023-01-11T04:20:31.502Z,88.17
2023-01-11T04:21:31.581Z,88.17
2023-01-11T04:22:31.719Z,88.26
2023-01-11T04:23:31.763Z,88.17
2023-01-11T04:24:31.854Z,88.26
2023-01-11T04:25:31.934Z,88.57
2023-01-11T04:26:32.023Z,88.57
2023-01-11T04:27:32.131Z,88.68
2023-01-11T04:28:32.213Z,88.88
2023-01-11T04:29:32.293Z,88.88
2023-01-11T04:30:32.370Z,89.09
2023-01-11T04:31:32.517Z,88.78
2023-01-11T04:32:32.567Z,88.78
2023-01-11T04:33:32.627Z,88.88
2023-01-11T04:34:32.695Z,89.09
2023-01-11T04:35:32.804Z,88.98
2023-01-11T04:36:32.849Z,89.09
2023-01-11T04:37:32.942Z,89.39
2023-01-11T04:38:32.983Z,89.70
2023-01-11T04:39:33.091Z,90.21
2023-01-11T04:40:33.163Z,90.62
2023-01-11T04:41:33.235Z,90.66
2023-01-11T04:42:33.329Z,90.66
2023-01-11T04:43:33.412Z,90.97
2023-01-11T04:44:33.477Z,91.07
2023-01-11T04:45:33.617Z,91.38
2023-01-11T04:46:33.621Z,91.48
2023-01-11T04:47:33.734Z,91.27
2023-01-11T04:48:33.781Z,91.17
2023-01-11T04:49:33.869Z,91.07
2023-01-11T04:50:34.019Z,91.48
2023-01-11T04:51:34.049Z,91.27
2023-01-11T04:52:34.139Z,91.38
2023-01-11T04:53:34.199Z,91.38
2023-01-11T04:54:34.284Z,91.58
2023-01-11T04:55:34.392Z,91.58
2023-01-11T04:56:34.489Z,91.58
2023-01-11T04:57:34.560Z,91.27
2023-01-11T04:58:37.826Z,91.58
2023-01-11T04:59:34.683Z,91.38
2023-01-11T05:00:34.764Z,91.58
2023-01-11T05:01:34.839Z,91.58
2023-01-11T05:02:34.934Z,91.48
2023-01-11T05:03:35.009Z,91.58
2023-01-11T05:04:35.091Z,91.58
2023-01-11T05:05:35.179Z,91.48
2023-01-11T05:06:35.290Z,91.89
2023-01-11T05:07:35.333Z,92.19
2023-01-11T05:08:35.390Z,92.19
2023-01-11T05:09:35.444Z,92.10
2023-01-11T05:10:35.538Z,92.19
2023-01-11T05:11:35.615Z,91.99
2023-01-11T05:12:35.701Z,91.99
2023-01-11T05:13:35.776Z,92.40
2023-01-11T05:14:35.868Z,92.30
2023-01-11T05:15:35.959Z,92.60
2023-01-11T05:16:36.068Z,92.71
2023-01-11T05:17:36.148Z,92.30
2023-01-11T05:18:36.183Z,92.60
2023-01-11T05:19:36.323Z,92.60
2023-01-11T05:20:36.374Z,92.60
2023-01-11T05:21:36.442Z,92.81
2023-01-11T05:22:36.549Z,92.81
2023-01-11T05:23:36.620Z,92.60
2023-01-11T05:24:36.696Z,92.81
2023-01-11T05:25:36.786Z,92.81
2023-01-11T05:26:36.840Z,92.71
2023-01-11T05:27:36.935Z,92.50
2023-01-11T05:28:36.979Z,92.30
2023-01-11T05:29:37.067Z,92.50
2023-01-11T05:30:37.147Z,92.40
2023-01-11T05:31:37.340Z,92.40
2023-01-11T05:32:37.313Z,92.60
2023-01-11T05:33:37.393Z,92.40
2023-01-11T05:34:37.469Z,92.60
2023-01-11T05:35:37.539Z,92.71
2023-01-11T05:36:37.628Z,92.91
2023-01-11T05:37:37.713Z,92.91
2023-01-11T05:38:37.758Z,92.91
2023-01-11T05:39:37.828Z,92.91
2023-01-11T05:40:37.921Z,92.71
2023-01-11T05:41:38.013Z,93.12
2023-01-11T05:42:38.113Z,92.91
2023-01-11T05:43:38.162Z,93.12
2023-01-11T05:44:38.369Z,92.81
2023-01-11T05:45:38.352Z,92.91
2023-01-11T05:46:38.413Z,92.81
2023-01-11T05:47:38.497Z,92.71
2023-01-11T05:48:38.552Z,92.71
2023-01-11T05:49:38.627Z,92.60
2023-01-11T05:50:38.701Z,92.30
2023-01-11T05:51:38.807Z,92.56
2023-01-11T05:52:38.908Z,92.60
2023-01-11T05:53:38.953Z,92.36
2023-01-11T05:54:39.079Z,92.46
2023-01-11T05:55:39.097Z,92.56
2023-01-11T05:56:39.185Z,92.56
2023-01-11T05:57:39.249Z,92.66
2023-01-11T05:58:39.310Z,92.77
2023-01-11T05:59:39.392Z,92.66
2023-01-11T06:00:39.462Z,92.66
2023-01-11T06:01:39.556Z,92.66
2023-01-11T06:02:39.788Z,92.66
2023-01-11T06:03:39.720Z,92.77
2023-01-11T06:04:39.790Z,92.66
2023-01-11T06:05:39.880Z,92.46
2023-01-11T06:06:40.003Z,92.77
2023-01-11T06:07:40.053Z,92.66
2023-01-11T06:08:40.129Z,92.66
2023-01-11T06:09:40.209Z,92.87
2023-01-11T06:10:40.293Z,92.97
2023-01-11T06:11:40.374Z,92.97
2023-01-11T06:12:40.467Z,92.77
2023-01-11T06:13:40.529Z,92.77
2023-01-11T06:14:40.614Z,92.87
2023-01-11T06:15:40.702Z,92.87
2023-01-11T06:16:40.821Z,92.87
2023-01-11T06:17:41.088Z,92.56
2023-01-11T06:18:40.987Z,92.77
2023-01-11T06:19:41.053Z,92.97
2023-01-11T06:20:41.126Z,92.77
2023-01-11T06:21:41.208Z,92.56
2023-01-11T06:22:41.321Z,92.77
2023-01-11T06:23:41.365Z,92.77
2023-01-11T06:24:41.460Z,92.77
2023-01-11T06:25:41.516Z,92.66
2023-01-11T06:26:41.596Z,92.36
2023-01-11T06:27:41.699Z,92.46
2023-01-11T06:28:41.773Z,92.66
2023-01-11T06:29:41.854Z,92.87
2023-01-11T06:30:42.052Z,92.87
2023-01-11T06:31:41.991Z,92.77
2023-01-11T06:32:42.108Z,92.97
2023-01-11T06:33:42.151Z,93.28
2023-01-11T06:34:42.282Z,92.97
2023-01-11T06:35:42.346Z,92.87
2023-01-11T06:36:42.404Z,93.07
2023-01-11T06:37:42.502Z,93.38
2023-01-11T06:38:42.579Z,93.28
2023-01-11T06:39:42.659Z,93.38
2023-01-11T06:40:42.734Z,93.48
2023-01-11T06:41:42.817Z,93.28
2023-01-11T06:42:42.922Z,93.38
2023-01-11T06:43:42.969Z,93.28
2023-01-11T06:44:43.069Z,93.28
2023-01-11T06:45:43.147Z,93.38
2023-01-11T06:46:43.214Z,93.59
2023-01-11T06:47:43.307Z,93.48
2023-01-11T06:48:43.381Z,93.38
2023-01-11T06:49:43.467Z,93.38
2023-01-11T06:50:43.539Z,93.48
2023-01-11T06:51:43.636Z,93.28
2023-01-11T06:52:43.716Z,93.28
2023-01-11T06:53:43.773Z,93.48
2023-01-11T06:54:43.841Z,93.69
2023-01-11T06:55:43.917Z,93.79
2023-01-11T06:56:43.987Z,93.48
2023-01-11T06:57:44.077Z,93.89
2023-01-11T06:58:46.838Z,93.79
2023-01-11T06:59:44.237Z,93.99
2023-01-11T07:00:44.307Z,93.89
2023-01-11T07:01:44.432Z,93.99
2023-01-11T07:02:44.481Z,93.99
2023-01-11T07:03:44.524Z,94.10
2023-01-11T07:04:44.637Z,94.20
2023-01-11T07:05:44.684Z,94.30
2023-01-11T07:06:44.764Z,94.30
2023-01-11T07:07:44.857Z,94.30
2023-01-11T07:08:44.933Z,94.30
2023-01-11T07:09:45.006Z,94.51
2023-01-11T07:10:45.123Z,94.71
2023-01-11T07:11:45.206Z,94.60
2023-01-11T07:12:45.294Z,94.71
2023-01-11T07:13:45.335Z,94.71
2023-01-11T07:14:45.409Z,94.81
2023-01-11T07:15:45.542Z,94.81
2023-01-11T07:16:45.580Z,94.92
2023-01-11T07:17:45.677Z,94.81
2023-01-11T07:18:46.685Z,94.92
2023-01-11T07:19:45.793Z,94.81
2023-01-11T07:20:45.865Z,94.60
2023-01-11T07:21:45.956Z,94.81
2023-01-11T07:22:46.031Z,94.60
2023-01-11T07:23:46.079Z,94.92
2023-01-11T07:24:48.404Z,94.92
2023-01-11T07:25:46.260Z,95.02
2023-01-11T07:26:46.355Z,95.02
2023-01-11T07:27:46.447Z,95.12
2023-01-11T07:28:46.491Z,95.12
2023-01-11T07:29:46.583Z,95.12
2023-01-11T07:30:58.307Z,95.12
2023-01-11T07:31:46.786Z,95.22
2023-01-11T07:32:46.812Z,95.22
2023-01-11T07:33:46.876Z,95.32
2023-01-11T07:34:46.947Z,95.22
2023-01-11T07:35:47.029Z,95.22
2023-01-11T07:36:47.117Z,95.32
2023-01-11T07:37:47.227Z,95.22
2023-01-11T07:38:47.306Z,95.22
2023-01-11T07:39:47.393Z,95.32
2023-01-11T07:40:47.487Z,95.43
2023-01-11T07:41:47.538Z,95.43
2023-01-11T07:42:47.635Z,95.53
2023-01-11T07:43:47.706Z,95.73
2023-01-11T07:44:47.775Z,95.73
2023-01-11T07:45:47.912Z,95.88
2023-01-11T07:46:48.062Z,95.78
2023-01-11T07:47:48.005Z,95.98
2023-01-11T07:48:48.075Z,96.08
2023-01-11T07:49:48.149Z,96.19
2023-01-11T07:50:48.247Z,96.29
2023-01-11T07:51:48.314Z,96.39
2023-01-11T07:52:48.446Z,96.39
2023-01-11T07:53:48.553Z,96.49
2023-01-11T07:54:48.616Z,96.59
2023-01-11T07:55:48.688Z,96.70
2023-01-11T07:56:48.787Z,96.70
2023-01-11T07:57:48.884Z,96.59
2023-01-11T07:58:49.003Z,96.29
2023-01-11T07:59:49.037Z,96.29
2023-01-11T08:00:49.149Z,96.29
2023-01-11T08:01:49.220Z,96.49
2023-01-11T08:02:49.396Z,96.49
2023-01-11T08:03:49.438Z,96.80
2023-01-11T08:04:49.473Z,97.00
2023-01-11T08:05:49.551Z,97.11
2023-01-11T08:06:49.621Z,97.21
2023-01-11T08:07:50.025Z,97.21
2023-01-11T08:08:49.780Z,97.31
2023-01-11T08:09:49.857Z,97.52
2023-01-11T08:10:49.941Z,97.52
2023-01-11T08:11:49.993Z,97.62
2023-01-11T08:12:51.606Z,97.72
2023-01-11T08:13:50.159Z,97.82
2023-01-11T08:14:50.228Z,97.82
2023-01-11T08:15:50.356Z,97.92
2023-01-11T08:16:50.406Z,98.07
2023-01-11T08:17:50.529Z,98.07
2023-01-11T08:18:50.581Z,98.18
2023-01-11T08:19:50.659Z,98.18
2023-01-11T08:20:50.768Z,98.28
2023-01-11T08:21:50.833Z,98.38
2023-01-11T08:22:50.952Z,98.49
2023-01-11T08:23:51.000Z,98.49
2023-01-11T08:24:51.092Z,98.58
2023-01-11T08:25:51.169Z,98.58
2023-01-11T08:26:51.277Z,98.69
2023-01-11T08:27:51.326Z,98.69
2023-01-11T08:28:51.392Z,98.69
2023-01-11T08:29:51.470Z,98.69
2023-01-11T08:30:51.611Z,98.69
2023-01-11T08:31:51.614Z,98.69
2023-01-11T08:32:51.695Z,98.69
2023-01-11T08:33:51.749Z,98.69
2023-01-11T08:34:51.815Z,98.69
2023-01-11T08:35:51.900Z,98.79
2023-01-11T08:36:51.986Z,98.90
2023-01-11T08:37:52.088Z,99.10
2023-01-11T08:38:52.157Z,99.20
2023-01-11T08:39:52.240Z,99.20
2023-01-11T08:40:52.338Z,99.30
2023-01-11T08:41:52.414Z,99.30
2023-01-11T08:42:52.517Z,99.41
2023-01-11T08:43:52.555Z,99.41
2023-01-11T08:44:52.641Z,99.41
2023-01-11T08:45:52.729Z,99.41
2023-01-11T08:46:52.807Z,99.51
2023-01-11T08:47:52.898Z,99.41
2023-01-11T08:48:52.943Z,99.41
2023-01-11T08:49:53.015Z,99.41
2023-01-11T08:50:53.096Z,99.41
2023-01-11T08:51:53.181Z,99.41
2023-01-11T08:52:53.260Z,99.41
2023-01-11T08:53:53.333Z,99.51
2023-01-11T08:54:53.416Z,99.51
2023-01-11T08:55:53.490Z,99.45
2023-01-11T08:56:53.576Z,99.41
2023-01-11T08:57:53.689Z,99.55
2023-01-11T08:58:53.743Z,99.45
2023-01-11T08:59:53.827Z,99.45
2023-01-11T09:00:53.912Z,99.35
2023-01-11T09:01:54.024Z,99.35
2023-01-11T09:02:54.129Z,99.15
2023-01-11T09:03:54.157Z,99.15
2023-01-11T09:04:54.213Z,99.04
2023-01-11T09:05:54.292Z,98.74
2023-01-11T09:06:54.380Z,98.63
2023-01-11T09:07:54.453Z,98.53
2023-01-11T09:08:54.496Z,98.33
2023-01-11T09:09:54.583Z,98.22
2023-01-11T09:10:54.647Z,98.12
2023-01-11T09:11:54.789Z,98.12
2023-01-11T09:12:54.850Z,98.12
2023-01-11T09:13:55.007Z,98.02
2023-01-11T09:14:55.004Z,98.02
2023-01-11T09:15:55.116Z,98.02
2023-01-11T09:16:55.177Z,97.91
2023-01-11T09:17:55.275Z,98.02
2023-01-11T09:18:55.317Z,98.02
2023-01-11T09:19:55.397Z,97.91
2023-01-11T09:20:55.496Z,97.91
2023-01-11T09:21:55.563Z,98.02
2023-01-11T09:22:55.652Z,98.02
2023-01-11T09:23:55.721Z,98.12
2023-01-11T09:24:55.817Z,98.22
2023-01-11T09:25:55.873Z,98.12
2023-01-11T09:26:55.978Z,98.12
2023-01-11T09:27:56.040Z,98.22
2023-01-11T09:28:56.149Z,98.33
2023-01-11T09:29:56.203Z,98.43
2023-01-11T09:30:56.340Z,98.53
2023-01-11T09:31:56.352Z,98.63
2023-01-11T09:32:56.446Z,98.74
2023-01-11T09:33:56.538Z,98.74
2023-01-11T09:34:56.615Z,98.83
2023-01-11T09:35:56.688Z,98.83
2023-01-11T09:36:56.799Z,98.83
2023-01-11T09:37:56.856Z,98.83
2023-01-11T09:38:56.909Z,98.94
2023-01-11T09:39:56.979Z,98.94
2023-01-11T09:40:57.063Z,98.94
2023-01-11T09:41:57.173Z,98.90
2023-01-11T09:42:57.231Z,98.94
2023-01-11T09:43:57.287Z,98.90
2023-01-11T09:44:57.372Z,98.90
2023-01-11T09:45:57.430Z,98.90
2023-01-11T09:46:57.543Z,98.90
2023-01-11T09:47:57.600Z,98.99
2023-01-11T09:48:57.647Z,98.99
2023-01-11T09:49:57.716Z,98.99
2023-01-11T09:50:57.960Z,99.10
2023-01-11T09:51:59.820Z,99.10
2023-01-11T09:52:57.979Z,99.20
2023-01-11T09:53:58.023Z,99.20
2023-01-11T09:54:58.100Z,99.10
2023-01-11T09:55:58.189Z,99.10
2023-01-11T09:56:58.261Z,99.10
2023-01-11T09:57:58.369Z,99.10
2023-01-11T09:58:58.452Z,99.10
2023-01-11T09:59:58.520Z,99.10
2023-01-11T10:01:01.152Z,99.10
2023-01-11T10:01:58.688Z,99.10
2023-01-11T10:02:58.776Z,99.10
2023-01-11T10:03:58.864Z,98.99
2023-01-11T10:04:59.035Z,98.90
2023-01-11T10:05:59.022Z,98.90
2023-01-11T10:06:59.114Z,98.79
2023-01-11T10:18:23.051Z,98.38
2023-01-11T10:19:04.292Z,96.54
2023-01-11T10:19:37.347Z,95.00
2023-01-11T10:19:48.920Z,94.49
2023-01-11T10:20:48.936Z,93.88
2023-01-11T10:21:49.005Z,93.77
2023-01-11T10:22:49.087Z,93.77
2023-01-11T10:23:49.155Z,93.98
2023-01-11T10:24:49.261Z,93.77
2023-01-11T10:25:49.324Z,93.26
2023-01-11T10:26:49.477Z,93.26
2023-01-11T10:27:49.497Z,92.96
2023-01-11T10:28:49.563Z,92.75
2023-01-11T10:29:49.652Z,92.55
2023-01-11T10:30:49.694Z,91.93
2023-01-11T10:31:49.851Z,92.14
2023-01-11T10:32:49.846Z,91.93
2023-01-11T10:33:49.965Z,91.63
2023-01-11T10:34:50.048Z,91.52
2023-01-11T10:35:50.100Z,91.93
2023-01-11T10:36:50.167Z,91.63
2023-01-11T10:37:50.246Z,90.91
2023-01-11T10:38:50.396Z,91.01
2023-01-11T10:39:50.421Z,91.22
2023-01-11T10:40:50.460Z,91.22
2023-01-11T10:41:50.536Z,91.11
2023-01-11T10:42:50.598Z,91.22
2023-01-11T10:43:50.676Z,90.70
2023-01-11T10:44:50.767Z,90.50
2023-01-11T10:45:51.199Z,90.19
2023-01-11T10:46:50.934Z,90.39
2023-01-11T10:47:50.997Z,90.50
2023-01-11T10:48:51.076Z,90.19
2023-01-11T10:49:51.173Z,89.78
2023-01-11T10:50:51.251Z,89.89
2023-01-11T10:51:51.327Z,89.89
2023-01-11T10:52:51.409Z,89.78
2023-01-11T10:53:51.494Z,89.68
2023-01-11T10:54:51.590Z,89.89
2023-01-11T10:55:51.691Z,89.68
2023-01-11T10:57:02.922Z,89.74
2023-01-11T10:58:00.243Z,89.64
2023-01-11T10:58:51.935Z,89.33
2023-01-11T10:59:51.983Z,89.03
2023-01-11T11:00:52.161Z,89.03
2023-01-11T11:01:52.215Z,88.51
2023-01-11T11:02:52.233Z,88.41
2023-01-11T11:03:52.303Z,88.20
2023-01-11T11:04:52.416Z,88.20
2023-01-11T11:05:52.486Z,88.10
2023-01-11T11:06:52.571Z,87.70
2023-01-11T11:07:52.692Z,87.79
2023-01-11T11:08:52.697Z,88.10
2023-01-11T11:09:53.011Z,88.00
2023-01-11T11:10:52.831Z,87.08
2023-01-11T11:11:53.143Z,86.57
2023-01-11T11:12:52.967Z,86.73
2023-01-11T11:13:53.046Z,86.83
2023-01-11T11:14:53.367Z,87.04
2023-01-11T11:15:53.414Z,86.83
2023-01-11T11:16:53.253Z,86.83
2023-01-11T11:17:53.325Z,86.83
2023-01-11T11:18:53.404Z,87.35
2023-01-11T11:19:53.491Z,87.14
2023-01-11T11:20:53.543Z,87.24
2023-01-11T11:21:53.616Z,87.14
2023-01-11T11:22:53.696Z,87.55
2023-01-11T11:23:53.767Z,87.45
2023-01-11T11:24:53.887Z,87.35
2023-01-11T11:25:53.951Z,87.04
2023-01-11T11:26:54.056Z,87.14
2023-01-11T11:27:54.110Z,86.94
2023-01-11T11:28:54.193Z,86.83
2023-01-11T11:29:54.341Z,86.73
2023-01-11T11:30:54.336Z,86.73
2023-01-11T11:31:54.484Z,86.83
2023-01-11T11:32:54.471Z,86.59
2023-01-11T11:33:54.546Z,86.18
2023-01-11T11:34:54.795Z,86.18
2023-01-11T11:35:54.701Z,86.49
2023-01-11T11:36:54.806Z,86.38
2023-01-11T11:37:54.893Z,85.88
2023-01-11T11:38:55.018Z,85.97
2023-01-11T11:39:55.054Z,85.88
2023-01-11T11:40:55.092Z,85.67
2023-01-11T11:41:55.192Z,85.57
2023-01-11T11:42:55.270Z,85.16
2023-01-11T11:43:55.348Z,84.95
2023-01-11T11:44:55.441Z,85.16
2023-01-11T11:45:55.596Z,85.16
2023-01-11T11:46:55.599Z,84.95
2023-01-11T11:47:55.673Z,84.85
2023-01-11T11:48:55.757Z,84.65
2023-01-11T11:49:55.841Z,84.34
2023-01-11T11:50:55.881Z,83.73
2023-01-11T11:51:55.971Z,83.73
2023-01-11T11:52:56.045Z,82.84
2023-01-11T11:53:56.124Z,83.05
2023-01-11T11:54:56.217Z,82.95
2023-01-11T11:55:56.285Z,82.54
2023-01-11T11:56:56.369Z,83.36
2023-01-11T11:57:56.441Z,82.84
2023-01-11T11:58:56.509Z,82.84
2023-01-11T11:59:56.611Z,82.43
2023-01-11T12:00:56.651Z,82.43
2023-01-11T12:01:56.796Z,82.48
2023-01-11T12:02:56.804Z,82.68
2023-01-11T12:03:56.910Z,82.48
2023-01-11T12:04:57.019Z,82.78
2023-01-11T12:05:57.048Z,82.98
2023-01-11T12:06:57.128Z,83.29
2023-01-11T12:07:57.206Z,82.78
2023-01-11T12:08:57.273Z,83.29
2023-01-11T12:09:57.364Z,82.98
2023-01-11T12:10:57.432Z,83.19
2023-01-11T12:11:57.508Z,83.29
2023-01-11T12:12:57.572Z,83.39
2023-01-11T12:13:57.644Z,83.39
2023-01-11T12:14:57.737Z,83.60
2023-01-11T12:15:57.807Z,83.70
2023-01-11T12:16:57.903Z,83.39
2023-01-11T12:17:57.975Z,83.29
2023-01-11T12:18:58.054Z,83.19
2023-01-11T12:19:58.165Z,82.07
2023-01-11T12:20:58.203Z,82.68
2023-01-11T12:21:58.285Z,82.37
2023-01-11T12:22:58.344Z,82.07
2023-01-11T12:23:58.417Z,82.27
2023-01-11T12:24:58.525Z,82.48
2023-01-11T12:25:58.609Z,82.17
2023-01-11T12:26:58.742Z,82.21
2023-01-11T12:27:58.781Z,82.00
2023-01-11T12:28:58.834Z,81.90
2023-01-11T12:29:58.926Z,81.29
2023-01-11T12:30:59.010Z,81.49
2023-01-11T12:31:59.082Z,81.79
2023-01-11T12:32:59.151Z,80.98
2023-01-11T12:33:59.229Z,81.49
2023-01-11T12:34:59.336Z,81.79
2023-01-11T12:36:00.183Z,81.59
2023-01-11T12:36:59.480Z,81.38
2023-01-11T12:37:59.548Z,81.49
2023-01-11T12:38:59.627Z,81.18
2023-01-11T12:39:59.739Z,80.77
2023-01-11T12:40:59.777Z,81.08
2023-01-11T12:41:59.856Z,82.00
2023-01-11T12:42:59.942Z,82.10
2023-01-11T12:44:00.019Z,82.24
2023-01-11T12:45:00.098Z,81.84
2023-01-11T12:46:00.228Z,82.14
2023-01-11T12:47:00.225Z,82.45
2023-01-11T12:48:00.317Z,82.55
2023-01-11T12:49:00.403Z,82.76
2023-01-11T12:50:00.497Z,83.17
2023-01-11T12:51:00.543Z,82.65
2023-01-11T12:52:00.631Z,82.55
2023-01-11T12:53:00.725Z,82.86
2023-01-11T12:54:00.787Z,82.86
2023-01-11T12:55:00.895Z,82.96
2023-01-11T12:56:00.968Z,82.35
2023-01-11T12:57:01.046Z,82.45
2023-01-11T12:58:01.131Z,82.76
2023-01-11T12:59:01.221Z,82.24
2023-01-11T13:00:01.323Z,82.14
2023-01-11T13:01:01.434Z,81.73
2023-01-11T13:02:01.490Z,82.04